sensor_id;sensor_type;location;lat;lon;timestamp;P1;durP1;ratioP1;P2;durP2;ratioP2
43449;SDS011;29041;42.266;23.110;2024-02-04T00:00:44;13.90;;;6.50;;
43449;SDS011;29041;42.266;23.110;2024-02-04T00:03:31;59.92;;;20.80;;
43449;SDS011;29041;42.266;23.110;2024-02-04T00:06:20;36.75;;;14.77;;
43449;SDS011;29041;42.266;23.110;2024-02-04T00:09:08;12.07;;;7.15;;
43449;SDS011;29041;42.266;23.110;2024-02-04T00:11:55;26.02;;;11.82;;
43449;SDS011;29041;42.266;23.110;2024-02-04T00:14:44;24.35;;;10.82;;
43449;SDS011;29041;42.266;23.110;2024-02-04T00:17:33;44.78;;;22.13;;
43449;SDS011;29041;42.266;23.110;2024-02-04T00:20:25;50.72;;;22.05;;
43449;SDS011;29041;42.266;23.110;2024-02-04T00:23:14;24.70;;;11.93;;
43449;SDS011;29041;42.266;23.110;2024-02-04T00:26:02;17.92;;;8.73;;
43449;SDS011;29041;42.266;23.110;2024-02-04T00:28:49;18.25;;;8.95;;
43449;SDS011;29041;42.266;23.110;2024-02-04T00:31:37;10.85;;;6.50;;
43449;SDS011;29041;42.266;23.110;2024-02-04T00:34:29;17.45;;;9.27;;
43449;SDS011;29041;42.266;23.110;2024-02-04T00:37:17;19.67;;;8.70;;
43449;SDS011;29041;42.266;23.110;2024-02-04T00:40:04;60.08;;;21.92;;
43449;SDS011;29041;42.266;23.110;2024-02-04T00:42:52;10.82;;;5.70;;
43449;SDS011;29041;42.266;23.110;2024-02-04T00:45:40;22.35;;;8.35;;
43449;SDS011;29041;42.266;23.110;2024-02-04T00:48:27;9.80;;;4.47;;
43449;SDS011;29041;42.266;23.110;2024-02-04T00:51:16;11.55;;;5.68;;
43449;SDS011;29041;42.266;23.110;2024-02-04T00:54:05;7.40;;;4.40;;
43449;SDS011;29041;42.266;23.110;2024-02-04T00:56:52;8.95;;;5.25;;
43449;SDS011;29041;42.266;23.110;2024-02-04T00:59:40;6.85;;;4.53;;
43449;SDS011;29041;42.266;23.110;2024-02-04T01:02:28;11.73;;;5.28;;
43449;SDS011;29041;42.266;23.110;2024-02-04T01:05:15;12.50;;;5.45;;
43449;SDS011;29041;42.266;23.110;2024-02-04T01:08:04;9.15;;;4.80;;
43449;SDS011;29041;42.266;23.110;2024-02-04T01:10:52;13.15;;;7.20;;
43449;SDS011;29041;42.266;23.110;2024-02-04T01:13:39;18.08;;;7.88;;
43449;SDS011;29041;42.266;23.110;2024-02-04T01:16:26;15.02;;;8.00;;
43449;SDS011;29041;42.266;23.110;2024-02-04T01:19:14;15.73;;;8.07;;
43449;SDS011;29041;42.266;23.110;2024-02-04T01:22:02;7.15;;;5.05;;
43449;SDS011;29041;42.266;23.110;2024-02-04T01:24:52;9.48;;;5.57;;
43449;SDS011;29041;42.266;23.110;2024-02-04T01:27:40;10.90;;;4.50;;
43449;SDS011;29041;42.266;23.110;2024-02-04T01:30:27;19.27;;;11.07;;
43449;SDS011;29041;42.266;23.110;2024-02-04T01:33:16;13.95;;;7.60;;
43449;SDS011;29041;42.266;23.110;2024-02-04T01:36:04;22.73;;;7.50;;
43449;SDS011;29041;42.266;23.110;2024-02-04T01:38:52;13.18;;;7.72;;
43449;SDS011;29041;42.266;23.110;2024-02-04T01:41:40;13.63;;;6.30;;
43449;SDS011;29041;42.266;23.110;2024-02-04T01:44:30;12.68;;;6.25;;
43449;SDS011;29041;42.266;23.110;2024-02-04T01:47:18;13.27;;;6.30;;
43449;SDS011;29041;42.266;23.110;2024-02-04T01:50:06;10.18;;;5.75;;
43449;SDS011;29041;42.266;23.110;2024-02-04T01:52:53;12.13;;;5.55;;
43449;SDS011;29041;42.266;23.110;2024-02-04T01:55:41;8.63;;;5.55;;
43449;SDS011;29041;42.266;23.110;2024-02-04T01:58:30;10.05;;;4.65;;
43449;SDS011;29041;42.266;23.110;2024-02-04T02:01:18;10.18;;;5.85;;
43449;SDS011;29041;42.266;23.110;2024-02-04T02:04:07;7.07;;;4.20;;
43449;SDS011;29041;42.266;23.110;2024-02-04T02:06:54;11.00;;;4.70;;
43449;SDS011;29041;42.266;23.110;2024-02-04T02:09:44;9.45;;;4.68;;
43449;SDS011;29041;42.266;23.110;2024-02-04T02:12:33;8.68;;;5.07;;
43449;SDS011;29041;42.266;23.110;2024-02-04T02:15:25;10.40;;;5.05;;
43449;SDS011;29041;42.266;23.110;2024-02-04T02:18:17;17.15;;;5.85;;
43449;SDS011;29041;42.266;23.110;2024-02-04T02:21:19;12.45;;;5.13;;
43449;SDS011;29041;42.266;23.110;2024-02-04T02:24:43;14.10;;;5.95;;
43449;SDS011;29041;42.266;23.110;2024-02-04T02:27:33;11.52;;;5.75;;
43449;SDS011;29041;42.266;23.110;2024-02-04T02:30:36;12.93;;;7.70;;
43449;SDS011;29041;42.266;23.110;2024-02-04T02:33:23;15.00;;;7.97;;
43449;SDS011;29041;42.266;23.110;2024-02-04T02:36:13;19.40;;;7.10;;
43449;SDS011;29041;42.266;23.110;2024-02-04T02:39:08;13.25;;;6.60;;
43449;SDS011;29041;42.266;23.110;2024-02-04T02:42:02;14.52;;;6.68;;
43449;SDS011;29041;42.266;23.110;2024-02-04T02:44:54;18.50;;;6.85;;
43449;SDS011;29041;42.266;23.110;2024-02-04T02:47:42;19.00;;;7.72;;
43449;SDS011;29041;42.266;23.110;2024-02-04T02:50:31;22.60;;;10.25;;
43449;SDS011;29041;42.266;23.110;2024-02-04T02:53:19;19.38;;;9.15;;
43449;SDS011;29041;42.266;23.110;2024-02-04T02:56:06;24.95;;;7.97;;
43449;SDS011;29041;42.266;23.110;2024-02-04T02:59:10;26.02;;;9.60;;
43449;SDS011;29041;42.266;23.110;2024-02-04T03:01:58;33.67;;;11.10;;
43449;SDS011;29041;42.266;23.110;2024-02-04T03:04:45;24.70;;;9.48;;
43449;SDS011;29041;42.266;23.110;2024-02-04T03:07:34;23.55;;;9.73;;
43449;SDS011;29041;42.266;23.110;2024-02-04T03:10:21;24.17;;;10.52;;
43449;SDS011;29041;42.266;23.110;2024-02-04T03:13:08;16.88;;;7.80;;
43449;SDS011;29041;42.266;23.110;2024-02-04T03:15:57;16.73;;;8.00;;
43449;SDS011;29041;42.266;23.110;2024-02-04T03:18:45;16.45;;;8.38;;
43449;SDS011;29041;42.266;23.110;2024-02-04T03:21:34;14.25;;;6.45;;
43449;SDS011;29041;42.266;23.110;2024-02-04T03:24:21;21.10;;;8.32;;
43449;SDS011;29041;42.266;23.110;2024-02-04T03:27:08;27.27;;;10.13;;
43449;SDS011;29041;42.266;23.110;2024-02-04T03:33:09;20.70;;;7.97;;
43449;SDS011;29041;42.266;23.110;2024-02-04T03:35:56;12.52;;;5.70;;
43449;SDS011;29041;42.266;23.110;2024-02-04T03:44:43;21.25;;;9.98;;
43449;SDS011;29041;42.266;23.110;2024-02-04T03:47:31;28.55;;;13.40;;
43449;SDS011;29041;42.266;23.110;2024-02-04T03:50:20;12.38;;;7.10;;
43449;SDS011;29041;42.266;23.110;2024-02-04T03:53:07;14.68;;;7.10;;
43449;SDS011;29041;42.266;23.110;2024-02-04T03:55:54;17.05;;;7.88;;
43449;SDS011;29041;42.266;23.110;2024-02-04T03:58:42;15.68;;;8.25;;
43449;SDS011;29041;42.266;23.110;2024-02-04T04:01:29;12.43;;;6.97;;
43449;SDS011;29041;42.266;23.110;2024-02-04T04:04:17;25.77;;;10.82;;
43449;SDS011;29041;42.266;23.110;2024-02-04T04:07:07;17.88;;;6.82;;
43449;SDS011;29041;42.266;23.110;2024-02-04T04:09:54;21.83;;;10.05;;
43449;SDS011;29041;42.266;23.110;2024-02-04T04:12:42;24.70;;;8.95;;
43449;SDS011;29041;42.266;23.110;2024-02-04T04:15:30;21.48;;;8.25;;
43449;SDS011;29041;42.266;23.110;2024-02-04T04:18:17;17.42;;;9.15;;
43449;SDS011;29041;42.266;23.110;2024-02-04T04:21:04;35.83;;;11.65;;
43449;SDS011;29041;42.266;23.110;2024-02-04T04:23:54;16.92;;;8.05;;
43449;SDS011;29041;42.266;23.110;2024-02-04T04:26:41;15.35;;;7.28;;
43449;SDS011;29041;42.266;23.110;2024-02-04T04:29:31;15.35;;;8.35;;
43449;SDS011;29041;42.266;23.110;2024-02-04T04:32:20;17.55;;;7.20;;
43449;SDS011;29041;42.266;23.110;2024-02-04T04:35:08;71.60;;;22.88;;
43449;SDS011;29041;42.266;23.110;2024-02-04T04:37:56;14.70;;;6.45;;
43449;SDS011;29041;42.266;23.110;2024-02-04T04:40:46;10.10;;;6.47;;
43449;SDS011;29041;42.266;23.110;2024-02-04T04:43:36;12.75;;;6.45;;
43449;SDS011;29041;42.266;23.110;2024-02-04T04:46:26;15.80;;;7.25;;
43449;SDS011;29041;42.266;23.110;2024-02-04T04:49:14;21.40;;;8.57;;
43449;SDS011;29041;42.266;23.110;2024-02-04T04:52:01;15.95;;;10.73;;
43449;SDS011;29041;42.266;23.110;2024-02-04T04:54:49;26.17;;;10.05;;
43449;SDS011;29041;42.266;23.110;2024-02-04T04:57:38;14.20;;;7.95;;
43449;SDS011;29041;42.266;23.110;2024-02-04T05:00:26;16.33;;;9.38;;
43449;SDS011;29041;42.266;23.110;2024-02-04T05:03:14;16.65;;;8.77;;
43449;SDS011;29041;42.266;23.110;2024-02-04T05:06:04;18.25;;;9.68;;
43449;SDS011;29041;42.266;23.110;2024-02-04T05:09:01;14.90;;;9.57;;
43449;SDS011;29041;42.266;23.110;2024-02-04T05:11:49;26.40;;;11.35;;
43449;SDS011;29041;42.266;23.110;2024-02-04T05:14:46;20.80;;;11.43;;
43449;SDS011;29041;42.266;23.110;2024-02-04T05:17:33;22.92;;;11.25;;
43449;SDS011;29041;42.266;23.110;2024-02-04T05:23:52;23.50;;;9.70;;
43449;SDS011;29041;42.266;23.110;2024-02-04T05:26:42;21.08;;;8.38;;
43449;SDS011;29041;42.266;23.110;2024-02-04T05:29:38;19.77;;;8.20;;
43449;SDS011;29041;42.266;23.110;2024-02-04T05:32:29;13.95;;;9.30;;
43449;SDS011;29041;42.266;23.110;2024-02-04T05:35:18;22.92;;;10.15;;
43449;SDS011;29041;42.266;23.110;2024-02-04T05:38:06;13.82;;;7.75;;
43449;SDS011;29041;42.266;23.110;2024-02-04T05:40:54;17.80;;;7.53;;
43449;SDS011;29041;42.266;23.110;2024-02-04T05:43:41;17.98;;;9.23;;
43449;SDS011;29041;42.266;23.110;2024-02-04T05:46:29;18.73;;;10.57;;
43449;SDS011;29041;42.266;23.110;2024-02-04T05:49:23;20.55;;;9.05;;
43449;SDS011;29041;42.266;23.110;2024-02-04T05:52:11;19.05;;;8.13;;
43449;SDS011;29041;42.266;23.110;2024-02-04T05:55:00;25.90;;;11.52;;
43449;SDS011;29041;42.266;23.110;2024-02-04T05:57:47;22.52;;;11.88;;
43449;SDS011;29041;42.266;23.110;2024-02-04T06:00:35;17.05;;;10.15;;
43449;SDS011;29041;42.266;23.110;2024-02-04T06:03:25;23.30;;;10.77;;
43449;SDS011;29041;42.266;23.110;2024-02-04T06:06:15;19.65;;;11.32;;
43449;SDS011;29041;42.266;23.110;2024-02-04T06:09:05;10.77;;;6.13;;
43449;SDS011;29041;42.266;23.110;2024-02-04T06:11:54;19.42;;;9.95;;
43449;SDS011;29041;42.266;23.110;2024-02-04T06:14:41;25.20;;;13.27;;
43449;SDS011;29041;42.266;23.110;2024-02-04T06:17:30;23.20;;;12.75;;
43449;SDS011;29041;42.266;23.110;2024-02-04T06:20:18;23.77;;;11.50;;
43449;SDS011;29041;42.266;23.110;2024-02-04T06:23:07;39.83;;;15.10;;
43449;SDS011;29041;42.266;23.110;2024-02-04T06:25:54;41.45;;;17.70;;
43449;SDS011;29041;42.266;23.110;2024-02-04T06:28:41;17.27;;;9.63;;
43449;SDS011;29041;42.266;23.110;2024-02-04T06:31:31;51.08;;;22.48;;
43449;SDS011;29041;42.266;23.110;2024-02-04T06:34:19;67.85;;;26.55;;
43449;SDS011;29041;42.266;23.110;2024-02-04T06:37:06;59.90;;;23.27;;
43449;SDS011;29041;42.266;23.110;2024-02-04T06:39:55;67.65;;;27.42;;
43449;SDS011;29041;42.266;23.110;2024-02-04T06:42:42;52.05;;;24.10;;
43449;SDS011;29041;42.266;23.110;2024-02-04T06:45:30;52.80;;;24.17;;
43449;SDS011;29041;42.266;23.110;2024-02-04T06:48:18;29.95;;;14.35;;
43449;SDS011;29041;42.266;23.110;2024-02-04T06:51:05;37.35;;;14.60;;
43449;SDS011;29041;42.266;23.110;2024-02-04T06:53:53;24.83;;;12.32;;
43449;SDS011;29041;42.266;23.110;2024-02-04T06:56:41;38.42;;;14.38;;
43449;SDS011;29041;42.266;23.110;2024-02-04T06:59:28;30.90;;;13.98;;
43449;SDS011;29041;42.266;23.110;2024-02-04T07:02:16;27.65;;;13.50;;
43449;SDS011;29041;42.266;23.110;2024-02-04T07:05:03;40.88;;;14.75;;
43449;SDS011;29041;42.266;23.110;2024-02-04T07:07:51;33.22;;;13.40;;
43449;SDS011;29041;42.266;23.110;2024-02-04T07:10:38;35.97;;;15.63;;
43449;SDS011;29041;42.266;23.110;2024-02-04T07:13:27;46.83;;;18.33;;
43449;SDS011;29041;42.266;23.110;2024-02-04T07:16:14;34.70;;;17.83;;
43449;SDS011;29041;42.266;23.110;2024-02-04T07:19:02;64.80;;;29.90;;
43449;SDS011;29041;42.266;23.110;2024-02-04T07:21:49;57.85;;;24.55;;
43449;SDS011;29041;42.266;23.110;2024-02-04T07:24:38;45.35;;;22.92;;
43449;SDS011;29041;42.266;23.110;2024-02-04T07:27:25;55.28;;;26.27;;
43449;SDS011;29041;42.266;23.110;2024-02-04T07:30:14;50.58;;;20.13;;
43449;SDS011;29041;42.266;23.110;2024-02-04T07:33:03;54.85;;;24.42;;
43449;SDS011;29041;42.266;23.110;2024-02-04T07:35:51;51.65;;;22.98;;
43449;SDS011;29041;42.266;23.110;2024-02-04T07:38:38;59.75;;;28.40;;
43449;SDS011;29041;42.266;23.110;2024-02-04T07:41:25;62.35;;;26.50;;
43449;SDS011;29041;42.266;23.110;2024-02-04T07:44:12;54.53;;;24.13;;
43449;SDS011;29041;42.266;23.110;2024-02-04T07:47:01;67.75;;;30.48;;
43449;SDS011;29041;42.266;23.110;2024-02-04T07:49:48;41.53;;;21.45;;
43449;SDS011;29041;42.266;23.110;2024-02-04T07:52:36;28.92;;;15.18;;
43449;SDS011;29041;42.266;23.110;2024-02-04T07:55:23;29.10;;;15.45;;
43449;SDS011;29041;42.266;23.110;2024-02-04T07:58:10;41.40;;;16.15;;
43449;SDS011;29041;42.266;23.110;2024-02-04T08:00:57;61.58;;;24.30;;
43449;SDS011;29041;42.266;23.110;2024-02-04T08:03:46;49.67;;;21.00;;
43449;SDS011;29041;42.266;23.110;2024-02-04T08:06:33;44.65;;;22.90;;
43449;SDS011;29041;42.266;23.110;2024-02-04T08:09:20;38.92;;;21.10;;
43449;SDS011;29041;42.266;23.110;2024-02-04T08:12:08;60.70;;;24.83;;
43449;SDS011;29041;42.266;23.110;2024-02-04T08:14:55;49.50;;;23.83;;
43449;SDS011;29041;42.266;23.110;2024-02-04T08:17:42;44.53;;;23.05;;
43449;SDS011;29041;42.266;23.110;2024-02-04T08:20:31;42.88;;;20.25;;
43449;SDS011;29041;42.266;23.110;2024-02-04T08:23:18;34.33;;;18.60;;
43449;SDS011;29041;42.266;23.110;2024-02-04T08:26:05;26.98;;;15.70;;
43449;SDS011;29041;42.266;23.110;2024-02-04T08:28:53;21.73;;;13.30;;
43449;SDS011;29041;42.266;23.110;2024-02-04T08:31:41;15.25;;;9.73;;
43449;SDS011;29041;42.266;23.110;2024-02-04T08:34:30;30.50;;;17.33;;
43449;SDS011;29041;42.266;23.110;2024-02-04T08:37:18;24.83;;;13.48;;
43449;SDS011;29041;42.266;23.110;2024-02-04T08:40:06;25.08;;;12.45;;
43449;SDS011;29041;42.266;23.110;2024-02-04T08:42:54;22.85;;;13.18;;
43449;SDS011;29041;42.266;23.110;2024-02-04T08:45:41;21.10;;;10.85;;
43449;SDS011;29041;42.266;23.110;2024-02-04T08:48:28;23.75;;;12.20;;
43449;SDS011;29041;42.266;23.110;2024-02-04T08:51:15;20.17;;;10.88;;
43449;SDS011;29041;42.266;23.110;2024-02-04T08:54:05;19.60;;;8.75;;
43449;SDS011;29041;42.266;23.110;2024-02-04T08:56:53;16.38;;;9.18;;
43449;SDS011;29041;42.266;23.110;2024-02-04T08:59:40;14.93;;;8.25;;
43449;SDS011;29041;42.266;23.110;2024-02-04T09:02:27;16.77;;;9.68;;
43449;SDS011;29041;42.266;23.110;2024-02-04T09:05:14;18.80;;;9.43;;
43449;SDS011;29041;42.266;23.110;2024-02-04T09:08:03;6.10;;;3.65;;
43449;SDS011;29041;42.266;23.110;2024-02-04T09:10:52;5.07;;;2.78;;
43449;SDS011;29041;42.266;23.110;2024-02-04T09:13:39;6.72;;;3.33;;
43449;SDS011;29041;42.266;23.110;2024-02-04T09:16:27;8.65;;;4.28;;
43449;SDS011;29041;42.266;23.110;2024-02-04T09:19:14;12.98;;;5.55;;
43449;SDS011;29041;42.266;23.110;2024-02-04T09:22:02;9.20;;;4.05;;
43449;SDS011;29041;42.266;23.110;2024-02-04T09:24:49;6.65;;;3.58;;
43449;SDS011;29041;42.266;23.110;2024-02-04T09:27:38;8.88;;;4.07;;
43449;SDS011;29041;42.266;23.110;2024-02-04T09:33:32;7.20;;;4.60;;
43449;SDS011;29041;42.266;23.110;2024-02-04T09:36:20;16.98;;;6.47;;
43449;SDS011;29041;42.266;23.110;2024-02-04T09:39:08;7.43;;;3.55;;
43449;SDS011;29041;42.266;23.110;2024-02-04T09:41:55;7.55;;;3.45;;
43449;SDS011;29041;42.266;23.110;2024-02-04T09:44:44;15.27;;;7.45;;
43449;SDS011;29041;42.266;23.110;2024-02-04T09:47:32;6.95;;;4.05;;
43449;SDS011;29041;42.266;23.110;2024-02-04T09:50:21;5.07;;;2.85;;
43449;SDS011;29041;42.266;23.110;2024-02-04T09:53:09;5.35;;;3.05;;
43449;SDS011;29041;42.266;23.110;2024-02-04T09:56:01;6.30;;;2.20;;
43449;SDS011;29041;42.266;23.110;2024-02-04T09:58:51;5.90;;;3.30;;
43449;SDS011;29041;42.266;23.110;2024-02-04T10:01:40;10.00;;;5.18;;
43449;SDS011;29041;42.266;23.110;2024-02-04T10:04:27;14.20;;;6.35;;
43449;SDS011;29041;42.266;23.110;2024-02-04T10:07:15;19.08;;;7.45;;
43449;SDS011;29041;42.266;23.110;2024-02-04T10:10:04;10.95;;;5.70;;
43449;SDS011;29041;42.266;23.110;2024-02-04T10:12:51;14.15;;;8.23;;
43449;SDS011;29041;42.266;23.110;2024-02-04T10:15:39;2.78;;;1.45;;
43449;SDS011;29041;42.266;23.110;2024-02-04T10:18:27;9.70;;;2.97;;
43449;SDS011;29041;42.266;23.110;2024-02-04T10:21:15;8.88;;;3.05;;
43449;SDS011;29041;42.266;23.110;2024-02-04T10:24:05;12.82;;;5.88;;
43449;SDS011;29041;42.266;23.110;2024-02-04T10:26:53;16.17;;;7.75;;
43449;SDS011;29041;42.266;23.110;2024-02-04T10:29:41;4.82;;;2.13;;
43449;SDS011;29041;42.266;23.110;2024-02-04T10:32:28;3.63;;;1.10;;
43449;SDS011;29041;42.266;23.110;2024-02-04T10:35:17;4.65;;;1.73;;
43449;SDS011;29041;42.266;23.110;2024-02-04T10:38:04;3.38;;;1.40;;
43449;SDS011;29041;42.266;23.110;2024-02-04T10:40:53;4.72;;;1.70;;
43449;SDS011;29041;42.266;23.110;2024-02-04T10:43:42;9.50;;;2.80;;
43449;SDS011;29041;42.266;23.110;2024-02-04T10:46:30;3.65;;;1.52;;
43449;SDS011;29041;42.266;23.110;2024-02-04T10:49:21;1.75;;;1.23;;
43449;SDS011;29041;42.266;23.110;2024-02-04T10:52:14;6.85;;;2.17;;
43449;SDS011;29041;42.266;23.110;2024-02-04T10:55:01;10.02;;;3.78;;
43449;SDS011;29041;42.266;23.110;2024-02-04T10:57:50;6.05;;;2.35;;
43449;SDS011;29041;42.266;23.110;2024-02-04T11:00:38;4.43;;;1.67;;
43449;SDS011;29041;42.266;23.110;2024-02-04T11:03:26;2.85;;;1.40;;
43449;SDS011;29041;42.266;23.110;2024-02-04T11:06:14;1.63;;;0.93;;
43449;SDS011;29041;42.266;23.110;2024-02-04T11:09:04;3.92;;;2.22;;
43449;SDS011;29041;42.266;23.110;2024-02-04T11:11:52;5.15;;;2.10;;
43449;SDS011;29041;42.266;23.110;2024-02-04T11:14:42;3.92;;;1.52;;
43449;SDS011;29041;42.266;23.110;2024-02-04T11:17:38;2.90;;;2.28;;
43449;SDS011;29041;42.266;23.110;2024-02-04T11:20:42;5.97;;;2.00;;
43449;SDS011;29041;42.266;23.110;2024-02-04T11:23:42;2.15;;;1.13;;
43449;SDS011;29041;42.266;23.110;2024-02-04T11:26:39;1.02;;;0.75;;
43449;SDS011;29041;42.266;23.110;2024-02-04T11:29:26;3.33;;;1.55;;
43449;SDS011;29041;42.266;23.110;2024-02-04T11:32:13;1.60;;;1.00;;
43449;SDS011;29041;42.266;23.110;2024-02-04T11:35:01;1.23;;;0.80;;
43449;SDS011;29041;42.266;23.110;2024-02-04T11:37:48;4.32;;;1.38;;
43449;SDS011;29041;42.266;23.110;2024-02-04T11:40:36;1.00;;;0.88;;
43449;SDS011;29041;42.266;23.110;2024-02-04T11:43:25;2.38;;;1.02;;
43449;SDS011;29041;42.266;23.110;2024-02-04T11:46:16;3.35;;;2.00;;
43449;SDS011;29041;42.266;23.110;2024-02-04T11:49:13;2.67;;;1.15;;
43449;SDS011;29041;42.266;23.110;2024-02-04T11:52:02;1.33;;;0.93;;
43449;SDS011;29041;42.266;23.110;2024-02-04T11:54:50;2.83;;;1.90;;
43449;SDS011;29041;42.266;23.110;2024-02-04T11:57:38;2.60;;;1.48;;
43449;SDS011;29041;42.266;23.110;2024-02-04T12:00:27;2.45;;;1.25;;
43449;SDS011;29041;42.266;23.110;2024-02-04T12:03:14;6.40;;;3.55;;
43449;SDS011;29041;42.266;23.110;2024-02-04T12:06:02;6.78;;;5.25;;
43449;SDS011;29041;42.266;23.110;2024-02-04T12:08:50;7.10;;;1.98;;
43449;SDS011;29041;42.266;23.110;2024-02-04T12:11:38;4.75;;;2.35;;
43449;SDS011;29041;42.266;23.110;2024-02-04T12:14:26;5.30;;;1.67;;
43449;SDS011;29041;42.266;23.110;2024-02-04T12:17:16;7.53;;;2.95;;
43449;SDS011;29041;42.266;23.110;2024-02-04T12:20:05;1.83;;;1.17;;
43449;SDS011;29041;42.266;23.110;2024-02-04T12:22:53;1.48;;;0.75;;
43449;SDS011;29041;42.266;23.110;2024-02-04T12:25:40;1.83;;;1.05;;
43449;SDS011;29041;42.266;23.110;2024-02-04T12:28:27;1.70;;;1.27;;
43449;SDS011;29041;42.266;23.110;2024-02-04T12:31:18;1.33;;;0.90;;
43449;SDS011;29041;42.266;23.110;2024-02-04T12:34:07;0.95;;;0.63;;
43449;SDS011;29041;42.266;23.110;2024-02-04T12:36:58;2.55;;;1.67;;
43449;SDS011;29041;42.266;23.110;2024-02-04T12:39:45;1.42;;;0.82;;
43449;SDS011;29041;42.266;23.110;2024-02-04T12:42:33;1.92;;;0.60;;
43449;SDS011;29041;42.266;23.110;2024-02-04T12:45:20;1.55;;;0.75;;
43449;SDS011;29041;42.266;23.110;2024-02-04T12:48:08;2.67;;;1.25;;
43449;SDS011;29041;42.266;23.110;2024-02-04T12:50:57;2.08;;;1.00;;
43449;SDS011;29041;42.266;23.110;2024-02-04T12:53:44;1.20;;;0.50;;
43449;SDS011;29041;42.266;23.110;2024-02-04T12:56:41;4.25;;;1.63;;
43449;SDS011;29041;42.266;23.110;2024-02-04T12:59:31;5.05;;;1.80;;
43449;SDS011;29041;42.266;23.110;2024-02-04T13:02:20;3.03;;;1.33;;
43449;SDS011;29041;42.266;23.110;2024-02-04T13:05:08;3.92;;;1.38;;
43449;SDS011;29041;42.266;23.110;2024-02-04T13:07:57;2.22;;;0.82;;
43449;SDS011;29041;42.266;23.110;2024-02-04T13:10:47;0.88;;;0.60;;
43449;SDS011;29041;42.266;23.110;2024-02-04T13:13:41;1.70;;;0.68;;
43449;SDS011;29041;42.266;23.110;2024-02-04T13:16:28;2.90;;;2.13;;
43449;SDS011;29041;42.266;23.110;2024-02-04T13:19:16;2.10;;;1.40;;
43449;SDS011;29041;42.266;23.110;2024-02-04T13:22:06;2.05;;;1.63;;
43449;SDS011;29041;42.266;23.110;2024-02-04T13:24:56;1.63;;;1.08;;
43449;SDS011;29041;42.266;23.110;2024-02-04T13:27:43;2.47;;;1.20;;
43449;SDS011;29041;42.266;23.110;2024-02-04T13:30:36;1.67;;;1.13;;
43449;SDS011;29041;42.266;23.110;2024-02-04T13:33:23;1.38;;;0.93;;
43449;SDS011;29041;42.266;23.110;2024-02-04T13:36:10;2.25;;;1.08;;
43449;SDS011;29041;42.266;23.110;2024-02-04T13:38:58;3.95;;;1.92;;
43449;SDS011;29041;42.266;23.110;2024-02-04T13:41:46;2.83;;;1.33;;
43449;SDS011;29041;42.266;23.110;2024-02-04T13:44:33;1.67;;;0.98;;
43449;SDS011;29041;42.266;23.110;2024-02-04T13:47:21;1.10;;;0.60;;
43449;SDS011;29041;42.266;23.110;2024-02-04T13:50:09;1.60;;;0.90;;
43449;SDS011;29041;42.266;23.110;2024-02-04T13:52:56;3.72;;;1.35;;
43449;SDS011;29041;42.266;23.110;2024-02-04T13:55:44;1.60;;;0.73;;
43449;SDS011;29041;42.266;23.110;2024-02-04T13:58:32;2.38;;;1.00;;
43449;SDS011;29041;42.266;23.110;2024-02-04T14:01:20;1.52;;;0.93;;
43449;SDS011;29041;42.266;23.110;2024-02-04T14:04:08;3.90;;;1.70;;
43449;SDS011;29041;42.266;23.110;2024-02-04T14:06:55;1.52;;;1.10;;
43449;SDS011;29041;42.266;23.110;2024-02-04T14:09:42;3.90;;;2.05;;
43449;SDS011;29041;42.266;23.110;2024-02-04T14:12:30;1.80;;;1.33;;
43449;SDS011;29041;42.266;23.110;2024-02-04T14:15:18;3.20;;;1.63;;
43449;SDS011;29041;42.266;23.110;2024-02-04T14:18:05;1.92;;;1.25;;
43449;SDS011;29041;42.266;23.110;2024-02-04T14:20:53;3.90;;;1.80;;
43449;SDS011;29041;42.266;23.110;2024-02-04T14:23:40;4.47;;;2.33;;
43449;SDS011;29041;42.266;23.110;2024-02-04T14:26:28;2.47;;;1.65;;
43449;SDS011;29041;42.266;23.110;2024-02-04T14:29:15;1.63;;;0.73;;
43449;SDS011;29041;42.266;23.110;2024-02-04T14:32:04;2.75;;;0.98;;
43449;SDS011;29041;42.266;23.110;2024-02-04T14:34:51;3.53;;;1.95;;
43449;SDS011;29041;42.266;23.110;2024-02-04T14:37:39;2.22;;;1.10;;
43449;SDS011;29041;42.266;23.110;2024-02-04T14:40:27;2.22;;;1.20;;
43449;SDS011;29041;42.266;23.110;2024-02-04T14:43:15;2.85;;;1.77;;
43449;SDS011;29041;42.266;23.110;2024-02-04T14:46:03;4.57;;;1.85;;
43449;SDS011;29041;42.266;23.110;2024-02-04T14:48:52;2.63;;;1.60;;
43449;SDS011;29041;42.266;23.110;2024-02-04T14:51:39;3.65;;;1.50;;
43449;SDS011;29041;42.266;23.110;2024-02-04T14:54:27;2.42;;;1.13;;
43449;SDS011;29041;42.266;23.110;2024-02-04T14:57:14;2.00;;;1.33;;
43449;SDS011;29041;42.266;23.110;2024-02-04T15:00:01;2.03;;;1.20;;
43449;SDS011;29041;42.266;23.110;2024-02-04T15:02:48;2.10;;;0.77;;
43449;SDS011;29041;42.266;23.110;2024-02-04T15:05:36;3.45;;;1.73;;
43449;SDS011;29041;42.266;23.110;2024-02-04T15:08:24;1.45;;;1.13;;
43449;SDS011;29041;42.266;23.110;2024-02-04T15:11:11;3.22;;;1.30;;
43449;SDS011;29041;42.266;23.110;2024-02-04T15:13:58;2.08;;;1.35;;
43449;SDS011;29041;42.266;23.110;2024-02-04T15:16:46;5.60;;;2.53;;
43449;SDS011;29041;42.266;23.110;2024-02-04T15:19:33;3.13;;;1.40;;
43449;SDS011;29041;42.266;23.110;2024-02-04T15:22:23;1.83;;;1.17;;
43449;SDS011;29041;42.266;23.110;2024-02-04T15:25:11;6.03;;;2.78;;
43449;SDS011;29041;42.266;23.110;2024-02-04T15:28:00;3.95;;;2.15;;
43449;SDS011;29041;42.266;23.110;2024-02-04T15:30:48;3.65;;;2.38;;
43449;SDS011;29041;42.266;23.110;2024-02-04T15:33:36;8.18;;;5.22;;
43449;SDS011;29041;42.266;23.110;2024-02-04T15:36:23;5.35;;;2.50;;
43449;SDS011;29041;42.266;23.110;2024-02-04T15:39:13;5.68;;;2.47;;
43449;SDS011;29041;42.266;23.110;2024-02-04T15:42:01;3.15;;;2.28;;
43449;SDS011;29041;42.266;23.110;2024-02-04T15:44:48;3.55;;;2.78;;
43449;SDS011;29041;42.266;23.110;2024-02-04T15:47:35;3.03;;;2.55;;
43449;SDS011;29041;42.266;23.110;2024-02-04T15:50:27;2.95;;;2.10;;
43449;SDS011;29041;42.266;23.110;2024-02-04T15:53:15;7.13;;;2.63;;
43449;SDS011;29041;42.266;23.110;2024-02-04T15:56:06;2.53;;;1.92;;
43449;SDS011;29041;42.266;23.110;2024-02-04T15:58:55;3.25;;;1.40;;
43449;SDS011;29041;42.266;23.110;2024-02-04T16:01:50;8.27;;;3.40;;
43449;SDS011;29041;42.266;23.110;2024-02-04T16:04:37;6.45;;;3.00;;
43449;SDS011;29041;42.266;23.110;2024-02-04T16:07:25;5.72;;;2.85;;
43449;SDS011;29041;42.266;23.110;2024-02-04T16:10:13;5.20;;;3.08;;
43449;SDS011;29041;42.266;23.110;2024-02-04T16:13:06;4.22;;;2.33;;
43449;SDS011;29041;42.266;23.110;2024-02-04T16:15:55;5.10;;;2.15;;
43449;SDS011;29041;42.266;23.110;2024-02-04T16:18:45;4.57;;;2.58;;
43449;SDS011;29041;42.266;23.110;2024-02-04T16:21:33;6.32;;;3.60;;
43449;SDS011;29041;42.266;23.110;2024-02-04T16:24:22;6.40;;;3.22;;
43449;SDS011;29041;42.266;23.110;2024-02-04T16:27:09;7.72;;;4.00;;
43449;SDS011;29041;42.266;23.110;2024-02-04T16:29:58;10.73;;;4.22;;
43449;SDS011;29041;42.266;23.110;2024-02-04T16:32:45;4.63;;;2.80;;
43449;SDS011;29041;42.266;23.110;2024-02-04T16:35:32;7.28;;;2.78;;
43449;SDS011;29041;42.266;23.110;2024-02-04T16:38:19;4.22;;;2.80;;
43449;SDS011;29041;42.266;23.110;2024-02-04T16:41:09;6.03;;;3.03;;
43449;SDS011;29041;42.266;23.110;2024-02-04T16:43:57;4.75;;;2.70;;